createdAt,value
2022-12-28T00:01:52.108Z,150027.06
2022-12-28T00:04:23.421Z,150016.81
2022-12-28T00:06:53.574Z,150019.34
2022-12-28T00:09:25.086Z,150007.81
2022-12-28T00:11:56.000Z,149997.56
2022-12-28T00:14:30.005Z,149988.56
2022-12-28T00:17:00.996Z,149982.16
2022-12-28T00:19:32.459Z,149985.97
2022-12-28T00:22:02.620Z,149988.56
2022-12-28T00:24:35.238Z,149987.28
2022-12-28T00:27:05.669Z,149983.44
2022-12-28T00:29:39.768Z,149991.09
2022-12-28T00:32:11.062Z,149988.56
2022-12-28T00:34:41.937Z,149993.69
2022-12-28T00:37:13.416Z,149988.56
2022-12-28T00:39:45.427Z,149991.09
2022-12-28T00:42:19.687Z,149987.28
2022-12-28T00:44:53.500Z,149989.84
2022-12-28T00:47:24.877Z,150010.34
2022-12-28T00:49:55.815Z,150029.59
2022-12-28T00:52:27.042Z,150057.84
2022-12-28T00:54:57.744Z,150052.72
2022-12-28T00:57:29.020Z,150034.72
2022-12-28T01:00:02.679Z,150024.47
2022-12-28T01:02:33.608Z,150027.06
2022-12-28T01:05:05.342Z,150021.94
2022-12-28T01:07:35.825Z,150003.94
2022-12-28T01:10:06.997Z,149969.31
2022-12-28T01:12:39.830Z,149957.81
2022-12-28T01:15:17.086Z,149957.81
2022-12-28T01:17:47.578Z,149957.81
2022-12-28T01:20:18.721Z,149939.81
2022-12-28T01:22:51.560Z,149916.72
2022-12-28T01:25:22.915Z,149907.75
2022-12-28T01:27:53.529Z,149900.06
2022-12-28T01:30:28.000Z,149898.81
2022-12-28T01:32:58.732Z,149901.34
2022-12-28T01:35:29.173Z,149896.22
2022-12-28T01:37:59.827Z,149898.81
2022-12-28T01:40:30.922Z,149909.06
2022-12-28T01:43:02.284Z,149897.47
2022-12-28T01:45:37.018Z,149892.34
2022-12-28T01:48:10.550Z,149893.69
2022-12-28T01:50:41.855Z,149885.97
2022-12-28T01:53:13.024Z,149878.25
2022-12-28T01:55:45.287Z,149868.00
2022-12-28T01:58:26.315Z,149875.72
2022-12-28T02:01:01.782Z,149870.59
2022-12-28T02:03:35.578Z,149874.44
2022-12-28T02:06:10.893Z,149870.59
2022-12-28T02:08:51.594Z,149868.00
2022-12-28T02:11:23.525Z,149875.72
2022-12-28T02:13:56.555Z,149891.09
2022-12-28T02:16:29.851Z,149906.47
2022-12-28T02:19:00.983Z,149930.84
2022-12-28T02:21:44.505Z,149933.44
2022-12-28T02:25:11.643Z,149943.69
2022-12-28T02:27:55.603Z,149964.19
2022-12-28T02:30:38.480Z,150010.34
2022-12-28T02:33:18.040Z,150015.47
2022-12-28T02:36:00.322Z,150036.06
2022-12-28T02:38:37.876Z,150018.06
2022-12-28T02:41:12.879Z,150009.09
2022-12-28T02:43:44.050Z,150046.31
2022-12-28T02:46:35.536Z,150046.31
2022-12-28T02:49:33.476Z,150029.59
2022-12-28T02:52:15.435Z,150048.84
2022-12-28T02:55:25.265Z,150074.50
2022-12-28T02:58:23.475Z,150041.19
2022-12-28T03:01:12.230Z,150020.63
2022-12-28T03:03:55.712Z,150016.81
2022-12-28T03:06:49.403Z,150012.94
2022-12-28T03:09:29.288Z,150015.47
2022-12-28T03:12:06.821Z,150003.94
2022-12-28T03:14:43.945Z,150012.94
2022-12-28T03:17:29.712Z,150006.53
2022-12-28T03:20:23.935Z,149998.81
2022-12-28T03:23:11.121Z,150003.94
2022-12-28T03:25:59.780Z,150003.94
2022-12-28T03:29:00.723Z,149996.25
2022-12-28T03:31:35.022Z,150006.53
2022-12-28T03:34:12.244Z,149988.56
2022-12-28T03:36:55.754Z,149977.03
2022-12-28T03:39:35.129Z,149955.22
2022-12-28T03:42:29.198Z,149947.53
2022-12-28T03:45:06.070Z,149934.69
2022-12-28T03:47:41.251Z,149937.25
2022-12-28T03:50:12.048Z,149934.69
2022-12-28T03:52:46.269Z,149906.47
2022-12-28T03:55:18.549Z,149878.25
2022-12-28T03:57:50.265Z,149884.69
2022-12-28T04:00:25.849Z,149862.88
2022-12-28T04:02:59.326Z,149871.84
2022-12-28T04:05:30.823Z,149876.97
2022-12-28T04:08:09.597Z,149868.00
2022-12-28T04:10:40.790Z,149860.31
2022-12-28T04:13:12.591Z,149848.75
2022-12-28T04:15:59.205Z,149851.34
2022-12-28T04:18:31.613Z,149857.75
2022-12-28T04:21:02.830Z,149844.94
2022-12-28T04:23:38.044Z,149833.38
2022-12-28T04:26:21.177Z,149838.50
2022-12-28T04:28:54.597Z,149837.22
2022-12-28T04:31:44.699Z,149841.09
2022-12-28T04:34:19.009Z,149847.47
2022-12-28T04:36:57.594Z,149852.63
2022-12-28T04:39:54.901Z,149843.63
2022-12-28T04:42:23.814Z,149853.88
2022-12-28T04:44:55.154Z,149859.00
2022-12-28T04:47:25.703Z,149882.09
2022-12-28T04:49:56.593Z,149910.31
2022-12-28T04:52:27.837Z,149909.06
2022-12-28T04:55:01.592Z,149884.69
2022-12-28T04:57:33.136Z,149878.25
2022-12-28T05:00:03.620Z,149862.88
2022-12-28T05:02:37.461Z,149850.06
2022-12-28T05:05:08.161Z,149824.41
2022-12-28T05:07:39.702Z,149809.00
2022-12-28T05:10:13.424Z,149806.47
2022-12-28T05:12:43.814Z,149803.88
2022-12-28T05:15:17.023Z,149796.22
2022-12-28T05:17:47.775Z,149788.50
2022-12-28T05:20:20.716Z,149777.00
2022-12-28T05:22:51.647Z,149765.41
2022-12-28T05:25:25.485Z,149760.31
2022-12-28T05:27:57.683Z,149752.63
2022-12-28T05:30:28.751Z,149743.66
2022-12-28T05:33:01.134Z,149735.94
2022-12-28T05:35:31.216Z,149727.00
2022-12-28T05:38:06.403Z,149716.72
2022-12-28T05:40:39.391Z,149711.59
2022-12-28T05:43:12.380Z,149706.47
2022-12-28T05:45:42.873Z,149706.47
2022-12-28T05:48:14.637Z,149688.56
2022-12-28T05:50:45.549Z,149683.44
2022-12-28T05:53:16.654Z,149687.25
2022-12-28T05:55:50.178Z,149687.25
2022-12-28T05:58:21.486Z,149685.97
2022-12-28T06:00:51.884Z,149687.25
2022-12-28T06:03:22.808Z,149675.72
2022-12-28T06:05:53.840Z,149662.88
2022-12-28T06:08:25.370Z,149655.22
2022-12-28T06:11:01.797Z,149653.97
2022-12-28T06:13:33.852Z,149661.63
2022-12-28T06:16:09.427Z,149668.03
2022-12-28T06:18:41.375Z,149660.34
2022-12-28T06:21:16.653Z,149655.22
2022-12-28T06:23:48.478Z,149650.09
2022-12-28T06:26:24.799Z,149648.84
2022-12-28T06:28:55.851Z,149665.47
2022-12-28T06:31:28.851Z,149670.59
2022-12-28T06:34:02.404Z,149671.88
2022-12-28T06:36:34.603Z,149674.47
2022-12-28T06:39:08.405Z,149671.88
2022-12-28T06:41:42.507Z,149675.72
2022-12-28T06:44:15.636Z,149674.47
2022-12-28T06:46:49.617Z,149657.78
2022-12-28T06:49:21.443Z,149666.75
2022-12-28T06:51:51.803Z,149674.47
2022-12-28T06:54:23.508Z,149697.53
2022-12-28T06:56:56.390Z,149720.56
2022-12-28T06:59:26.752Z,149705.19
2022-12-28T07:01:58.381Z,149701.34
2022-12-28T07:04:28.580Z,149700.06
2022-12-28T07:07:00.549Z,149702.66
2022-12-28T07:09:30.761Z,149732.13
2022-12-28T07:12:04.992Z,149746.19
2022-12-28T07:14:35.808Z,149755.19
2022-12-28T07:17:07.481Z,149766.75
2022-12-28T07:19:37.636Z,149769.28
2022-12-28T07:22:09.057Z,149778.25
2022-12-28T07:24:39.692Z,149798.75
2022-12-28T07:27:13.927Z,149819.28
2022-12-28T07:29:44.867Z,149847.47
2022-12-28T07:32:16.589Z,149850.06
2022-12-28T07:34:47.995Z,149875.72
2022-12-28T07:37:19.189Z,149906.47
2022-12-28T07:39:49.617Z,149916.72
2022-12-28T07:42:23.611Z,149948.81
2022-12-28T07:44:55.198Z,149985.97
2022-12-28T07:47:25.803Z,150034.72
2022-12-28T07:49:57.341Z,150093.75
2022-12-28T07:52:27.790Z,150164.38
2022-12-28T07:54:59.330Z,150252.94
2022-12-28T07:57:37.035Z,150259.34
2022-12-28T08:00:09.608Z,150267.06
2022-12-28T08:02:48.311Z,150241.34
2022-12-28T08:05:18.683Z,150236.22
2022-12-28T08:07:50.328Z,150258.06
2022-12-28T08:10:22.054Z,150303.00
2022-12-28T08:12:55.220Z,150399.34
2022-12-28T08:15:28.584Z,150410.91
2022-12-28T08:18:00.251Z,150413.47
2022-12-28T08:20:30.625Z,150462.25
2022-12-28T08:23:02.600Z,150517.53
2022-12-28T08:25:33.911Z,150593.34
2022-12-28T08:28:07.763Z,150714.22
2022-12-28T08:30:43.433Z,150781.06
2022-12-28T08:33:13.697Z,150818.38
2022-12-28T08:35:46.010Z,150865.97
2022-12-28T08:38:16.674Z,150895.56
2022-12-28T08:40:54.152Z,150892.97
2022-12-28T08:43:31.029Z,150968.91
2022-12-28T08:46:02.936Z,151021.66
2022-12-28T08:48:34.613Z,151025.50
2022-12-28T08:51:07.847Z,151017.81
2022-12-28T08:53:40.231Z,151015.22
2022-12-28T08:56:13.569Z,151044.81
2022-12-28T08:58:49.154Z,151104.03
2022-12-28T09:01:22.511Z,151101.50
2022-12-28T09:03:56.402Z,151101.50
2022-12-28T09:06:33.499Z,151123.34
2022-12-28T09:09:07.427Z,151116.94
2022-12-28T09:11:38.870Z,151158.13
2022-12-28T09:14:22.043Z,151143.94
2022-12-28T09:16:55.212Z,151167.13
2022-12-28T09:19:26.207Z,151173.56
2022-12-28T09:21:57.474Z,151186.44
2022-12-28T09:24:28.097Z,151200.63
2022-12-28T09:26:59.764Z,151241.81
2022-12-28T09:29:33.563Z,151227.66
2022-12-28T09:32:04.996Z,151245.69
2022-12-28T09:34:37.822Z,151281.75
2022-12-28T09:37:10.159Z,151330.69
2022-12-28T09:39:43.307Z,151364.19
2022-12-28T09:42:21.846Z,151371.94
2022-12-28T09:45:05.940Z,151386.09
2022-12-28T09:47:41.776Z,151446.69
2022-12-28T09:50:30.540Z,151427.34
2022-12-28T09:53:27.273Z,151444.09
2022-12-28T09:56:03.380Z,151495.66
2022-12-28T09:58:42.830Z,151509.84
2022-12-28T10:01:24.471Z,151526.59
2022-12-28T10:04:00.811Z,151505.97
2022-12-28T10:06:37.153Z,151531.75
2022-12-28T10:09:15.490Z,151525.31
2022-12-28T10:11:46.986Z,151526.59
2022-12-28T10:14:22.366Z,151548.47
2022-12-28T10:17:02.967Z,151564.00
2022-12-28T10:19:34.208Z,151575.56
2022-12-28T10:22:06.937Z,151633.63
2022-12-28T10:24:42.122Z,151631.00
2022-12-28T10:27:20.483Z,151587.16
2022-12-28T10:29:52.029Z,151572.97
2022-12-28T10:32:25.489Z,151567.81
2022-12-28T10:35:01.852Z,151554.97
2022-12-28T10:37:35.383Z,151585.88
2022-12-28T10:40:09.830Z,151634.88
2022-12-28T10:42:43.596Z,151683.91
2022-12-28T10:45:22.004Z,151722.59
2022-12-28T10:47:57.228Z,151695.50
2022-12-28T10:50:49.519Z,151670.97
2022-12-28T10:53:22.375Z,151674.84
2022-12-28T10:56:04.737Z,151695.50
2022-12-28T10:58:36.992Z,151683.91
2022-12-28T11:01:10.719Z,151683.91
2022-12-28T11:03:47.935Z,151672.31
2022-12-28T11:06:26.729Z,151661.94
2022-12-28T11:09:08.729Z,151695.50
2022-12-28T11:11:40.269Z,151740.63
2022-12-28T11:14:18.921Z,151781.94
2022-12-28T11:16:51.294Z,151757.41
2022-12-28T11:19:26.506Z,151739.34
2022-12-28T11:21:56.881Z,151727.75
2022-12-28T11:24:34.733Z,151699.38
2022-12-28T11:27:09.151Z,151656.78
2022-12-28T11:29:41.358Z,151661.94
2022-12-28T11:32:21.711Z,151692.94
2022-12-28T11:34:58.081Z,151676.13
2022-12-28T11:37:32.364Z,151720.00
2022-12-28T11:40:03.651Z,151723.88
2022-12-28T11:42:57.911Z,151736.78
2022-12-28T11:45:55.381Z,151754.81
2022-12-28T11:49:00.342Z,151762.59
2022-12-28T11:51:36.795Z,151801.28
2022-12-28T11:54:28.455Z,151801.28
2022-12-28T11:57:04.522Z,151820.66
2022-12-28T11:59:36.423Z,151812.88
2022-12-28T12:02:43.592Z,151811.59
2022-12-28T12:05:44.333Z,151843.84
2022-12-28T12:08:45.406Z,151820.66
2022-12-28T12:11:33.573Z,151833.53
2022-12-28T12:14:05.473Z,151840.00
2022-12-28T12:16:50.270Z,151827.09
2022-12-28T12:19:26.481Z,151850.38
2022-12-28T12:22:04.149Z,151840.00
2022-12-28T12:24:45.783Z,151830.97
2022-12-28T12:27:20.361Z,151832.25
2022-12-28T12:29:56.025Z,151836.13
2022-12-28T12:32:36.608Z,151843.84
2022-12-28T12:35:10.321Z,151843.84
2022-12-28T12:37:48.730Z,151805.13
2022-12-28T12:40:58.004Z,151797.41
2022-12-28T12:43:52.348Z,151825.81
2022-12-28T12:47:06.404Z,151830.97
2022-12-28T12:49:52.959Z,151829.63
2022-12-28T12:52:39.220Z,151830.97
2022-12-28T12:55:28.614Z,151834.78
2022-12-28T12:58:11.040Z,151842.56
2022-12-28T13:00:52.061Z,151843.84
2022-12-28T13:03:36.484Z,151834.78
2022-12-28T13:06:09.546Z,151855.53
2022-12-28T13:08:44.324Z,151847.78
2022-12-28T13:11:15.794Z,151881.34
2022-12-28T13:13:52.189Z,151900.69
2022-12-28T13:16:26.295Z,151908.41
2022-12-28T13:18:59.964Z,151922.59
2022-12-28T13:21:35.362Z,151923.94
2022-12-28T13:24:05.691Z,151929.09
2022-12-28T13:26:37.704Z,151918.72
2022-12-28T13:29:20.276Z,151907.13
2022-12-28T13:31:52.717Z,151864.53
2022-12-28T13:34:26.691Z,151850.38
2022-12-28T13:36:59.728Z,151825.81
2022-12-28T13:39:38.332Z,151809.00
2022-12-28T13:42:18.905Z,151796.13
2022-12-28T13:44:57.458Z,151765.13
2022-12-28T13:47:32.765Z,151743.22
2022-12-28T13:50:08.971Z,151738.06
2022-12-28T13:52:43.099Z,151708.41
2022-12-28T13:55:18.525Z,151681.28
2022-12-28T13:57:58.864Z,151673.59
2022-12-28T14:00:35.198Z,151651.63
2022-12-28T14:03:11.807Z,151629.72
2022-12-28T14:05:47.528Z,151606.50
2022-12-28T14:08:19.791Z,151611.66
2022-12-28T14:10:51.688Z,151583.28
2022-12-28T14:13:25.690Z,151579.47
2022-12-28T14:16:01.517Z,151575.56
2022-12-28T14:18:33.873Z,151544.66
2022-12-28T14:21:07.312Z,151536.91
2022-12-28T14:23:40.223Z,151509.84
2022-12-28T14:26:15.673Z,151480.22
2022-12-28T14:28:51.584Z,151457.00
2022-12-28T14:31:29.602Z,151441.53
2022-12-28T14:34:04.163Z,151411.91
2022-12-28T14:36:45.237Z,151404.13
2022-12-28T14:39:28.760Z,151414.44
2022-12-28T14:42:01.037Z,151417.06
2022-12-28T14:44:35.338Z,151426.06
2022-12-28T14:47:39.355Z,151410.56
2022-12-28T14:50:20.002Z,151405.41
2022-12-28T14:52:52.695Z,151389.97
2022-12-28T14:55:34.256Z,151389.97
2022-12-28T14:58:09.436Z,151375.78
2022-12-28T15:00:41.634Z,151364.19
2022-12-28T15:03:24.342Z,151357.78
2022-12-28T15:05:56.559Z,151369.34
2022-12-28T15:08:29.094Z,151359.06
2022-12-28T15:13:45.066Z,151356.44
2022-12-28T15:16:17.787Z,151334.56
2022-12-28T15:18:54.509Z,151341.00
2022-12-28T15:21:26.306Z,151341.00
2022-12-28T15:24:00.179Z,151334.56
2022-12-28T15:26:30.853Z,151326.81
2022-12-28T15:29:06.667Z,151304.94
2022-12-28T15:31:40.379Z,151276.59
2022-12-28T15:34:14.331Z,151274.03
2022-12-28T15:36:46.296Z,151274.03
2022-12-28T15:39:18.240Z,151303.66
2022-12-28T15:41:51.660Z,151266.28
2022-12-28T15:44:24.467Z,151263.75
2022-12-28T15:46:55.117Z,151246.97
2022-12-28T15:49:28.963Z,151219.94
2022-12-28T15:52:00.687Z,151219.94
2022-12-28T15:54:34.214Z,151205.78
2022-12-28T15:57:05.759Z,151198.03
2022-12-28T15:59:36.703Z,151204.44
2022-12-28T16:02:08.875Z,151190.31
2022-12-28T16:04:43.752Z,151143.94
2022-12-28T16:07:14.983Z,151160.72
2022-12-28T16:09:51.862Z,151133.66
2022-12-28T16:12:22.798Z,151114.34
2022-12-28T16:14:56.241Z,151107.91
2022-12-28T16:17:27.604Z,151075.69
2022-12-28T16:20:03.179Z,151047.41
2022-12-28T16:22:35.039Z,151022.97
2022-12-28T16:25:06.409Z,151029.38
2022-12-28T16:27:43.320Z,151013.94
2022-12-28T16:30:15.254Z,151001.06
2022-12-28T16:32:46.896Z,150972.72
2022-12-28T16:35:24.314Z,150952.16
2022-12-28T16:37:55.612Z,150965.03
2022-12-28T16:40:25.875Z,150967.59
2022-12-28T16:42:56.942Z,150950.88
2022-12-28T16:45:28.553Z,150943.13
2022-12-28T16:48:00.271Z,150952.16
2022-12-28T16:50:36.005Z,150925.16
2022-12-28T16:53:08.020Z,150909.72
2022-12-28T16:55:45.820Z,150887.81
2022-12-28T16:58:17.499Z,150871.13
2022-12-28T17:00:49.637Z,150854.38
2022-12-28T17:03:20.266Z,150862.09
2022-12-28T17:05:56.238Z,150867.25
2022-12-28T17:08:32.636Z,150862.09
2022-12-28T17:11:05.410Z,150859.50
2022-12-28T17:13:36.064Z,150863.38
2022-12-28T17:16:09.018Z,150863.38
2022-12-28T17:18:41.431Z,150869.78
2022-12-28T17:21:16.958Z,150850.53
2022-12-28T17:23:48.266Z,150885.28
2022-12-28T17:26:19.178Z,150874.94
2022-12-28T17:28:50.789Z,150874.94
2022-12-28T17:31:24.641Z,150851.81
2022-12-28T17:33:58.013Z,150859.50
2022-12-28T17:36:33.253Z,150850.53
2022-12-28T17:39:40.289Z,150860.84
2022-12-28T17:42:17.940Z,150837.66
2022-12-28T17:44:50.339Z,150865.97
2022-12-28T17:47:24.013Z,150868.53
2022-12-28T17:49:56.359Z,150864.66
2022-12-28T17:52:31.742Z,150873.66
2022-12-28T17:55:03.715Z,150891.69
2022-12-28T17:57:38.595Z,150885.28
2022-12-28T18:00:11.768Z,150881.41
2022-12-28T18:02:48.941Z,150885.28
2022-12-28T18:05:22.663Z,150881.41
2022-12-28T18:07:58.033Z,150895.56
2022-12-28T18:10:39.021Z,150926.44
2022-12-28T18:13:13.756Z,150923.84
2022-12-28T18:15:47.296Z,150921.28
2022-12-28T18:18:22.467Z,150934.16
2022-12-28T18:21:00.065Z,150918.69
2022-12-28T18:23:34.585Z,150912.28
2022-12-28T18:26:10.620Z,150921.28
2022-12-28T18:28:41.951Z,150908.41
2022-12-28T18:31:13.409Z,150898.13
2022-12-28T18:33:44.279Z,150917.41
2022-12-28T18:36:18.535Z,150899.38
2022-12-28T18:38:56.680Z,150904.59
2022-12-28T18:41:33.747Z,150890.41
2022-12-28T18:44:06.903Z,150877.53
2022-12-28T18:46:48.463Z,150872.41
2022-12-28T18:49:22.195Z,150860.84
2022-12-28T18:51:53.375Z,150833.78
2022-12-28T18:54:27.754Z,150805.50
2022-12-28T18:56:59.064Z,150792.66
2022-12-28T18:59:30.439Z,150772.09
2022-12-28T19:02:06.874Z,150742.50
2022-12-28T19:04:39.920Z,150738.66
2022-12-28T19:07:10.769Z,150738.66
2022-12-28T19:10:11.540Z,150725.75
2022-12-28T19:12:45.252Z,150733.50
2022-12-28T19:15:16.071Z,150746.31
2022-12-28T19:17:47.732Z,150711.63
2022-12-28T19:20:19.061Z,150703.94
2022-12-28T19:22:50.913Z,150701.34
2022-12-28T19:25:24.940Z,150697.47
2022-12-28T19:27:56.883Z,150694.91
2022-12-28T19:30:35.877Z,150684.63
2022-12-28T19:33:08.007Z,150671.75
2022-12-28T19:35:39.539Z,150667.91
2022-12-28T19:38:10.551Z,150656.34
2022-12-28T19:40:44.881Z,150664.06
2022-12-28T19:43:15.927Z,150639.66
2022-12-28T19:45:48.666Z,150621.63
2022-12-28T19:48:22.811Z,150629.38
2022-12-28T19:50:57.160Z,150615.22
2022-12-28T19:53:30.117Z,150586.94
2022-12-28T19:56:07.426Z,150584.34
2022-12-28T19:58:40.703Z,150593.34
2022-12-28T20:01:15.613Z,150590.81
2022-12-28T20:03:48.464Z,150579.19
2022-12-28T20:06:23.668Z,150585.66
2022-12-28T20:08:57.558Z,150588.22
2022-12-28T20:11:30.832Z,150588.22
2022-12-28T20:14:10.081Z,150583.06
2022-12-28T20:16:40.980Z,150576.66
2022-12-28T20:19:14.052Z,150576.66
2022-12-28T20:21:46.132Z,150576.66
2022-12-28T20:24:21.946Z,150575.38
2022-12-28T20:27:01.507Z,150579.19
2022-12-28T20:29:32.770Z,150588.22
2022-12-28T20:32:04.041Z,150580.53
2022-12-28T20:34:35.143Z,150567.66
2022-12-28T20:37:06.069Z,150556.09
2022-12-28T20:39:37.141Z,150579.19
2022-12-28T20:42:23.215Z,150577.94
2022-12-28T20:44:57.666Z,150563.78
2022-12-28T20:47:28.096Z,150548.38
2022-12-28T20:50:00.722Z,150559.91
2022-12-28T20:52:33.777Z,150566.38
2022-12-28T20:55:05.424Z,150567.66
2022-12-28T20:57:39.984Z,150535.50
2022-12-28T21:00:13.213Z,150553.50
2022-12-28T21:02:45.609Z,150552.25
2022-12-28T21:05:16.103Z,150548.38
2022-12-28T21:07:47.319Z,150532.97
2022-12-28T21:10:18.453Z,150531.69
2022-12-28T21:12:52.758Z,150545.78
2022-12-28T21:15:24.860Z,150523.94
2022-12-28T21:17:58.040Z,150512.41
2022-12-28T21:20:35.458Z,150514.94
2022-12-28T21:23:11.106Z,150502.13
2022-12-28T21:25:43.012Z,150504.69
2022-12-28T21:28:16.727Z,150485.41
2022-12-28T21:30:57.929Z,150468.72
2022-12-28T21:33:29.846Z,150459.72
2022-12-28T21:36:02.507Z,150476.41
2022-12-28T21:38:34.973Z,150494.41
2022-12-28T21:41:08.324Z,150500.81
2022-12-28T21:43:44.457Z,150493.13
2022-12-28T21:46:17.770Z,150500.81
2022-12-28T21:48:48.779Z,150513.69
2022-12-28T21:51:33.738Z,150481.53
2022-12-28T21:54:07.771Z,150489.25
2022-12-28T21:56:39.294Z,150489.25
2022-12-28T21:59:13.959Z,150475.13
2022-12-28T22:01:58.871Z,150503.41
2022-12-28T22:04:44.339Z,150490.53
2022-12-28T22:07:19.608Z,150476.41
2022-12-28T22:10:11.985Z,150462.25
2022-12-28T22:12:46.136Z,150461.00
2022-12-28T22:15:36.511Z,150459.72
2022-12-28T22:18:12.794Z,150466.13
2022-12-28T22:20:54.946Z,150479.00
2022-12-28T22:23:34.253Z,150454.56
2022-12-28T22:26:07.547Z,150480.25
2022-12-28T22:28:39.681Z,150459.72
2022-12-28T22:31:13.477Z,150488.00
2022-12-28T22:33:45.426Z,150523.94
2022-12-28T22:36:18.737Z,150525.22
2022-12-28T22:38:49.564Z,150574.06
2022-12-28T22:41:24.384Z,150586.94
2022-12-28T22:43:57.593Z,150576.66
2022-12-28T22:46:30.772Z,150572.78
2022-12-28T22:49:02.245Z,150561.25
2022-12-28T22:51:34.727Z,150552.25
2022-12-28T22:54:09.635Z,150556.09
2022-12-28T22:56:41.524Z,150552.25
2022-12-28T22:59:15.817Z,150539.38
2022-12-28T23:01:51.786Z,150505.94
2022-12-28T23:04:26.589Z,150513.69
2022-12-28T23:07:03.536Z,150518.81
2022-12-28T23:09:36.673Z,150511.09
2022-12-28T23:12:12.341Z,150495.66
2022-12-28T23:14:55.299Z,150495.66
2022-12-28T23:17:36.509Z,150481.53
2022-12-28T23:20:21.164Z,150471.25
2022-12-28T23:23:04.157Z,150455.84
2022-12-28T23:25:50.022Z,150445.56
2022-12-28T23:28:21.991Z,150448.16
2022-12-28T23:30:56.831Z,150440.44
2022-12-28T23:33:33.061Z,150423.75
2022-12-28T23:36:05.979Z,150414.75
2022-12-28T23:38:42.679Z,150409.63
2022-12-28T23:41:25.350Z,150412.16
2022-12-28T23:43:57.137Z,150394.22
2022-12-28T23:46:28.036Z,150382.63
2022-12-28T23:49:08.234Z,150376.22
2022-12-28T23:51:39.720Z,150362.09
2022-12-28T23:54:11.553Z,150363.34
2022-12-28T23:56:45.523Z,150364.69
2022-12-28T23:59:16.309Z,150342.81
